sensor_id;sensor_type;location;lat;lon;timestamp;P1;durP1;ratioP1;P2;durP2;ratioP2
18999;SDS011;9633;50.980;13.850;2023-04-10T00:01:29;34.67;;;24.17;;
18999;SDS011;9633;50.980;13.850;2023-04-10T00:03:06;32.30;;;22.53;;
18999;SDS011;9633;50.980;13.850;2023-04-10T00:04:39;34.23;;;23.30;;
18999;SDS011;9633;50.980;13.850;2023-04-10T00:06:12;29.40;;;22.70;;
18999;SDS011;9633;50.980;13.850;2023-04-10T00:07:45;30.47;;;21.77;;
18999;SDS011;9633;50.980;13.850;2023-04-10T00:09:18;31.00;;;22.30;;
18999;SDS011;9633;50.980;13.850;2023-04-10T00:10:51;33.73;;;23.30;;
18999;SDS011;9633;50.980;13.850;2023-04-10T00:12:24;31.67;;;22.30;;
18999;SDS011;9633;50.980;13.850;2023-04-10T00:13:58;34.47;;;23.57;;
18999;SDS011;9633;50.980;13.850;2023-04-10T00:15:31;29.57;;;20.00;;
18999;SDS011;9633;50.980;13.850;2023-04-10T00:17:05;27.13;;;19.03;;
18999;SDS011;9633;50.980;13.850;2023-04-10T00:18:38;27.00;;;19.40;;
18999;SDS011;9633;50.980;13.850;2023-04-10T00:20:12;26.03;;;19.20;;
18999;SDS011;9633;50.980;13.850;2023-04-10T00:21:45;27.60;;;19.53;;
18999;SDS011;9633;50.980;13.850;2023-04-10T00:23:18;29.67;;;21.23;;
18999;SDS011;9633;50.980;13.850;2023-04-10T00:24:50;32.03;;;22.00;;
18999;SDS011;9633;50.980;13.850;2023-04-10T00:26:23;32.40;;;22.23;;
18999;SDS011;9633;50.980;13.850;2023-04-10T00:27:57;29.80;;;20.93;;
18999;SDS011;9633;50.980;13.850;2023-04-10T00:29:30;30.47;;;21.57;;
18999;SDS011;9633;50.980;13.850;2023-04-10T00:31:03;30.73;;;21.73;;
18999;SDS011;9633;50.980;13.850;2023-04-10T00:32:38;30.77;;;20.60;;
18999;SDS011;9633;50.980;13.850;2023-04-10T00:34:10;30.07;;;20.77;;
18999;SDS011;9633;50.980;13.850;2023-04-10T00:35:44;29.40;;;20.53;;
18999;SDS011;9633;50.980;13.850;2023-04-10T00:37:17;29.93;;;20.17;;
18999;SDS011;9633;50.980;13.850;2023-04-10T00:38:50;29.13;;;19.97;;
18999;SDS011;9633;50.980;13.850;2023-04-10T00:40:24;27.30;;;18.73;;
18999;SDS011;9633;50.980;13.850;2023-04-10T00:41:57;29.70;;;19.33;;
18999;SDS011;9633;50.980;13.850;2023-04-10T00:43:31;30.37;;;19.70;;
18999;SDS011;9633;50.980;13.850;2023-04-10T00:45:05;28.80;;;20.53;;
18999;SDS011;9633;50.980;13.850;2023-04-10T00:46:39;28.93;;;20.60;;
18999;SDS011;9633;50.980;13.850;2023-04-10T00:48:14;29.77;;;21.33;;
18999;SDS011;9633;50.980;13.850;2023-04-10T00:49:48;32.40;;;22.13;;
18999;SDS011;9633;50.980;13.850;2023-04-10T00:51:20;31.73;;;21.97;;
18999;SDS011;9633;50.980;13.850;2023-04-10T00:52:54;32.40;;;22.03;;
18999;SDS011;9633;50.980;13.850;2023-04-10T00:54:28;33.80;;;22.53;;
18999;SDS011;9633;50.980;13.850;2023-04-10T00:56:03;31.50;;;22.07;;
18999;SDS011;9633;50.980;13.850;2023-04-10T00:57:38;33.47;;;22.77;;
18999;SDS011;9633;50.980;13.850;2023-04-10T00:59:15;31.17;;;21.70;;
18999;SDS011;9633;50.980;13.850;2023-04-10T01:00:48;29.97;;;21.60;;
18999;SDS011;9633;50.980;13.850;2023-04-10T01:02:22;31.63;;;20.90;;
18999;SDS011;9633;50.980;13.850;2023-04-10T01:03:56;31.40;;;22.07;;
18999;SDS011;9633;50.980;13.850;2023-04-10T01:05:31;31.67;;;22.03;;
18999;SDS011;9633;50.980;13.850;2023-04-10T01:07:13;33.90;;;23.70;;
18999;SDS011;9633;50.980;13.850;2023-04-10T01:08:54;35.37;;;23.63;;
18999;SDS011;9633;50.980;13.850;2023-04-10T01:10:33;32.93;;;23.17;;
18999;SDS011;9633;50.980;13.850;2023-04-10T01:12:14;32.80;;;21.97;;
18999;SDS011;9633;50.980;13.850;2023-04-10T01:14:04;31.83;;;22.37;;
18999;SDS011;9633;50.980;13.850;2023-04-10T01:15:48;31.17;;;21.67;;
18999;SDS011;9633;50.980;13.850;2023-04-10T01:17:30;32.37;;;21.67;;
18999;SDS011;9633;50.980;13.850;2023-04-10T01:19:09;31.70;;;21.73;;
18999;SDS011;9633;50.980;13.850;2023-04-10T01:20:54;34.10;;;22.93;;
18999;SDS011;9633;50.980;13.850;2023-04-10T01:22:33;36.83;;;23.57;;
18999;SDS011;9633;50.980;13.850;2023-04-10T01:26:09;36.00;;;24.43;;
18999;SDS011;9633;50.980;13.850;2023-04-10T01:27:54;39.57;;;25.27;;
18999;SDS011;9633;50.980;13.850;2023-04-10T01:29:40;33.93;;;24.47;;
18999;SDS011;9633;50.980;13.850;2023-04-10T01:31:19;36.17;;;25.30;;
18999;SDS011;9633;50.980;13.850;2023-04-10T01:32:58;38.27;;;25.43;;
18999;SDS011;9633;50.980;13.850;2023-04-10T01:34:34;36.37;;;25.00;;
18999;SDS011;9633;50.980;13.850;2023-04-10T01:36:14;37.07;;;24.77;;
18999;SDS011;9633;50.980;13.850;2023-04-10T01:37:52;34.57;;;23.37;;
18999;SDS011;9633;50.980;13.850;2023-04-10T01:39:26;34.33;;;23.67;;
18999;SDS011;9633;50.980;13.850;2023-04-10T01:41:04;35.97;;;24.60;;
18999;SDS011;9633;50.980;13.850;2023-04-10T01:42:39;39.37;;;25.20;;
18999;SDS011;9633;50.980;13.850;2023-04-10T01:44:16;38.97;;;27.23;;
18999;SDS011;9633;50.980;13.850;2023-04-10T01:45:52;40.33;;;26.70;;
18999;SDS011;9633;50.980;13.850;2023-04-10T01:47:27;39.87;;;27.30;;
18999;SDS011;9633;50.980;13.850;2023-04-10T01:49:00;45.00;;;28.47;;
18999;SDS011;9633;50.980;13.850;2023-04-10T01:50:34;42.13;;;27.73;;
18999;SDS011;9633;50.980;13.850;2023-04-10T01:52:07;38.50;;;26.63;;
18999;SDS011;9633;50.980;13.850;2023-04-10T01:53:41;39.67;;;26.83;;
18999;SDS011;9633;50.980;13.850;2023-04-10T01:55:16;34.17;;;24.67;;
18999;SDS011;9633;50.980;13.850;2023-04-10T01:56:55;34.20;;;24.20;;
18999;SDS011;9633;50.980;13.850;2023-04-10T01:58:30;38.70;;;24.83;;
18999;SDS011;9633;50.980;13.850;2023-04-10T02:00:02;35.10;;;25.17;;
18999;SDS011;9633;50.980;13.850;2023-04-10T02:01:46;35.83;;;24.80;;
18999;SDS011;9633;50.980;13.850;2023-04-10T02:03:20;34.67;;;25.03;;
18999;SDS011;9633;50.980;13.850;2023-04-10T02:04:54;38.57;;;26.03;;
18999;SDS011;9633;50.980;13.850;2023-04-10T02:06:28;37.07;;;24.90;;
18999;SDS011;9633;50.980;13.850;2023-04-10T02:08:10;37.47;;;24.87;;
18999;SDS011;9633;50.980;13.850;2023-04-10T02:09:52;36.43;;;23.83;;
18999;SDS011;9633;50.980;13.850;2023-04-10T02:11:37;40.40;;;26.97;;
18999;SDS011;9633;50.980;13.850;2023-04-10T02:13:15;34.67;;;23.93;;
18999;SDS011;9633;50.980;13.850;2023-04-10T02:14:53;33.57;;;22.97;;
18999;SDS011;9633;50.980;13.850;2023-04-10T02:16:29;35.90;;;24.20;;
18999;SDS011;9633;50.980;13.850;2023-04-10T02:18:05;35.77;;;23.77;;
18999;SDS011;9633;50.980;13.850;2023-04-10T02:19:38;36.50;;;24.73;;
18999;SDS011;9633;50.980;13.850;2023-04-10T02:21:12;37.33;;;25.47;;
18999;SDS011;9633;50.980;13.850;2023-04-10T02:22:45;40.23;;;25.83;;
18999;SDS011;9633;50.980;13.850;2023-04-10T02:24:19;34.40;;;23.53;;
18999;SDS011;9633;50.980;13.850;2023-04-10T02:25:52;36.90;;;26.13;;
18999;SDS011;9633;50.980;13.850;2023-04-10T02:27:28;38.37;;;25.20;;
18999;SDS011;9633;50.980;13.850;2023-04-10T02:29:02;39.03;;;25.50;;
18999;SDS011;9633;50.980;13.850;2023-04-10T02:30:35;37.40;;;24.73;;
18999;SDS011;9633;50.980;13.850;2023-04-10T02:32:09;36.30;;;24.47;;
18999;SDS011;9633;50.980;13.850;2023-04-10T02:33:44;39.97;;;26.27;;
18999;SDS011;9633;50.980;13.850;2023-04-10T02:35:16;40.93;;;25.50;;
18999;SDS011;9633;50.980;13.850;2023-04-10T02:36:49;40.20;;;25.07;;
18999;SDS011;9633;50.980;13.850;2023-04-10T02:38:23;38.07;;;25.70;;
18999;SDS011;9633;50.980;13.850;2023-04-10T02:39:57;36.43;;;24.83;;
18999;SDS011;9633;50.980;13.850;2023-04-10T02:41:30;36.63;;;25.27;;
18999;SDS011;9633;50.980;13.850;2023-04-10T02:43:06;39.87;;;25.10;;
18999;SDS011;9633;50.980;13.850;2023-04-10T02:44:40;37.90;;;24.87;;
18999;SDS011;9633;50.980;13.850;2023-04-10T02:46:13;38.63;;;24.97;;
18999;SDS011;9633;50.980;13.850;2023-04-10T02:47:46;39.83;;;26.13;;
18999;SDS011;9633;50.980;13.850;2023-04-10T02:49:20;37.70;;;24.23;;
18999;SDS011;9633;50.980;13.850;2023-04-10T02:50:55;38.80;;;26.57;;
18999;SDS011;9633;50.980;13.850;2023-04-10T02:52:29;40.53;;;25.97;;
18999;SDS011;9633;50.980;13.850;2023-04-10T02:54:03;34.83;;;23.60;;
18999;SDS011;9633;50.980;13.850;2023-04-10T02:55:37;36.30;;;23.53;;
18999;SDS011;9633;50.980;13.850;2023-04-10T02:57:09;33.33;;;23.30;;
18999;SDS011;9633;50.980;13.850;2023-04-10T02:58:42;34.23;;;23.13;;
18999;SDS011;9633;50.980;13.850;2023-04-10T03:00:18;33.47;;;23.20;;
18999;SDS011;9633;50.980;13.850;2023-04-10T03:02:12;34.07;;;22.47;;
18999;SDS011;9633;50.980;13.850;2023-04-10T03:03:45;33.23;;;22.40;;
18999;SDS011;9633;50.980;13.850;2023-04-10T03:05:28;38.53;;;23.83;;
18999;SDS011;9633;50.980;13.850;2023-04-10T03:07:01;35.27;;;23.33;;
18999;SDS011;9633;50.980;13.850;2023-04-10T03:08:36;34.00;;;22.43;;
18999;SDS011;9633;50.980;13.850;2023-04-10T03:10:09;31.83;;;22.43;;
18999;SDS011;9633;50.980;13.850;2023-04-10T03:11:42;31.17;;;21.20;;
18999;SDS011;9633;50.980;13.850;2023-04-10T03:13:15;32.63;;;21.70;;
18999;SDS011;9633;50.980;13.850;2023-04-10T03:14:49;35.03;;;22.33;;
18999;SDS011;9633;50.980;13.850;2023-04-10T03:16:21;34.97;;;22.83;;
18999;SDS011;9633;50.980;13.850;2023-04-10T03:17:54;31.10;;;21.73;;
18999;SDS011;9633;50.980;13.850;2023-04-10T03:19:27;31.20;;;21.77;;
18999;SDS011;9633;50.980;13.850;2023-04-10T03:21:02;34.43;;;22.90;;
18999;SDS011;9633;50.980;13.850;2023-04-10T03:22:34;32.27;;;21.93;;
18999;SDS011;9633;50.980;13.850;2023-04-10T03:24:07;31.30;;;21.60;;
18999;SDS011;9633;50.980;13.850;2023-04-10T03:25:40;34.20;;;23.00;;
18999;SDS011;9633;50.980;13.850;2023-04-10T03:27:15;33.53;;;22.87;;
18999;SDS011;9633;50.980;13.850;2023-04-10T03:28:48;38.00;;;23.93;;
18999;SDS011;9633;50.980;13.850;2023-04-10T03:30:20;33.10;;;22.83;;
18999;SDS011;9633;50.980;13.850;2023-04-10T03:31:53;36.33;;;22.43;;
18999;SDS011;9633;50.980;13.850;2023-04-10T03:33:28;32.37;;;22.20;;
18999;SDS011;9633;50.980;13.850;2023-04-10T03:35:03;33.63;;;22.27;;
18999;SDS011;9633;50.980;13.850;2023-04-10T03:36:38;29.63;;;20.83;;
18999;SDS011;9633;50.980;13.850;2023-04-10T03:38:11;33.20;;;22.07;;
18999;SDS011;9633;50.980;13.850;2023-04-10T03:39:44;31.20;;;21.73;;
18999;SDS011;9633;50.980;13.850;2023-04-10T03:41:17;32.83;;;21.30;;
18999;SDS011;9633;50.980;13.850;2023-04-10T03:42:54;32.13;;;21.97;;
18999;SDS011;9633;50.980;13.850;2023-04-10T03:44:28;31.37;;;21.27;;
18999;SDS011;9633;50.980;13.850;2023-04-10T03:46:01;32.23;;;21.97;;
18999;SDS011;9633;50.980;13.850;2023-04-10T03:47:33;31.03;;;21.40;;
18999;SDS011;9633;50.980;13.850;2023-04-10T03:49:09;32.23;;;21.60;;
18999;SDS011;9633;50.980;13.850;2023-04-10T03:50:43;32.00;;;22.27;;
18999;SDS011;9633;50.980;13.850;2023-04-10T03:52:18;33.63;;;22.20;;
18999;SDS011;9633;50.980;13.850;2023-04-10T03:53:51;30.10;;;21.37;;
18999;SDS011;9633;50.980;13.850;2023-04-10T03:55:24;32.00;;;22.07;;
18999;SDS011;9633;50.980;13.850;2023-04-10T03:56:57;32.07;;;21.53;;
18999;SDS011;9633;50.980;13.850;2023-04-10T03:58:31;31.30;;;21.87;;
18999;SDS011;9633;50.980;13.850;2023-04-10T04:00:05;32.33;;;20.73;;
18999;SDS011;9633;50.980;13.850;2023-04-10T04:01:51;31.57;;;21.20;;
18999;SDS011;9633;50.980;13.850;2023-04-10T04:03:24;29.43;;;20.73;;
18999;SDS011;9633;50.980;13.850;2023-04-10T04:05:09;29.73;;;21.57;;
18999;SDS011;9633;50.980;13.850;2023-04-10T04:07:07;32.07;;;22.10;;
18999;SDS011;9633;50.980;13.850;2023-04-10T04:09:14;31.13;;;21.13;;
18999;SDS011;9633;50.980;13.850;2023-04-10T04:11:00;29.53;;;20.60;;
18999;SDS011;9633;50.980;13.850;2023-04-10T04:12:59;29.63;;;20.97;;
18999;SDS011;9633;50.980;13.850;2023-04-10T04:14:43;28.13;;;19.40;;
18999;SDS011;9633;50.980;13.850;2023-04-10T04:16:34;28.70;;;19.83;;
18999;SDS011;9633;50.980;13.850;2023-04-10T04:18:26;29.23;;;20.17;;
18999;SDS011;9633;50.980;13.850;2023-04-10T04:20:19;28.87;;;21.00;;
18999;SDS011;9633;50.980;13.850;2023-04-10T04:22:11;29.27;;;19.23;;
18999;SDS011;9633;50.980;13.850;2023-04-10T04:24:03;33.03;;;21.97;;
18999;SDS011;9633;50.980;13.850;2023-04-10T04:25:56;29.80;;;20.87;;
18999;SDS011;9633;50.980;13.850;2023-04-10T04:27:38;28.00;;;20.23;;
18999;SDS011;9633;50.980;13.850;2023-04-10T04:29:30;31.97;;;21.87;;
18999;SDS011;9633;50.980;13.850;2023-04-10T04:31:18;30.63;;;21.53;;
18999;SDS011;9633;50.980;13.850;2023-04-10T04:33:06;29.60;;;21.20;;
18999;SDS011;9633;50.980;13.850;2023-04-10T04:34:54;29.37;;;20.77;;
18999;SDS011;9633;50.980;13.850;2023-04-10T04:36:46;31.77;;;20.43;;
18999;SDS011;9633;50.980;13.850;2023-04-10T04:38:39;30.03;;;20.43;;
18999;SDS011;9633;50.980;13.850;2023-04-10T04:40:33;29.80;;;20.87;;
18999;SDS011;9633;50.980;13.850;2023-04-10T04:42:28;28.70;;;20.80;;
18999;SDS011;9633;50.980;13.850;2023-04-10T04:44:21;29.53;;;20.83;;
18999;SDS011;9633;50.980;13.850;2023-04-10T04:46:11;28.50;;;20.47;;
18999;SDS011;9633;50.980;13.850;2023-04-10T04:48:13;27.70;;;20.50;;
18999;SDS011;9633;50.980;13.850;2023-04-10T04:49:57;32.07;;;22.37;;
18999;SDS011;9633;50.980;13.850;2023-04-10T04:51:49;29.23;;;22.13;;
18999;SDS011;9633;50.980;13.850;2023-04-10T04:53:41;32.77;;;23.00;;
18999;SDS011;9633;50.980;13.850;2023-04-10T04:55:32;32.57;;;22.80;;
18999;SDS011;9633;50.980;13.850;2023-04-10T04:57:13;30.00;;;22.40;;
18999;SDS011;9633;50.980;13.850;2023-04-10T04:58:59;30.13;;;21.50;;
18999;SDS011;9633;50.980;13.850;2023-04-10T05:00:57;29.57;;;21.10;;
18999;SDS011;9633;50.980;13.850;2023-04-10T05:02:54;27.97;;;19.63;;
18999;SDS011;9633;50.980;13.850;2023-04-10T05:04:33;29.80;;;21.07;;
18999;SDS011;9633;50.980;13.850;2023-04-10T05:06:16;27.50;;;18.90;;
18999;SDS011;9633;50.980;13.850;2023-04-10T05:08:04;26.17;;;19.73;;
18999;SDS011;9633;50.980;13.850;2023-04-10T05:09:49;23.97;;;18.90;;
18999;SDS011;9633;50.980;13.850;2023-04-10T05:11:58;26.40;;;18.57;;
18999;SDS011;9633;50.980;13.850;2023-04-10T05:13:49;24.73;;;17.80;;
18999;SDS011;9633;50.980;13.850;2023-04-10T05:15:49;24.87;;;17.33;;
18999;SDS011;9633;50.980;13.850;2023-04-10T05:17:23;22.13;;;17.07;;
18999;SDS011;9633;50.980;13.850;2023-04-10T05:19:19;21.80;;;17.17;;
18999;SDS011;9633;50.980;13.850;2023-04-10T05:21:18;21.87;;;16.20;;
18999;SDS011;9633;50.980;13.850;2023-04-10T05:23:18;26.40;;;17.17;;
18999;SDS011;9633;50.980;13.850;2023-04-10T05:25:20;22.23;;;15.60;;
18999;SDS011;9633;50.980;13.850;2023-04-10T05:27:16;21.10;;;15.53;;
18999;SDS011;9633;50.980;13.850;2023-04-10T05:29:27;22.37;;;15.60;;
18999;SDS011;9633;50.980;13.850;2023-04-10T05:31:22;19.30;;;14.77;;
18999;SDS011;9633;50.980;13.850;2023-04-10T05:33:14;22.00;;;16.10;;
18999;SDS011;9633;50.980;13.850;2023-04-10T05:35:07;19.47;;;15.23;;
18999;SDS011;9633;50.980;13.850;2023-04-10T05:36:50;20.30;;;14.37;;
18999;SDS011;9633;50.980;13.850;2023-04-10T05:38:42;19.53;;;14.23;;
18999;SDS011;9633;50.980;13.850;2023-04-10T05:40:38;18.13;;;14.90;;
18999;SDS011;9633;50.980;13.850;2023-04-10T05:42:25;19.00;;;14.37;;
18999;SDS011;9633;50.980;13.850;2023-04-10T05:44:15;19.73;;;14.47;;
18999;SDS011;9633;50.980;13.850;2023-04-10T05:46:00;17.40;;;14.33;;
18999;SDS011;9633;50.980;13.850;2023-04-10T05:47:55;18.80;;;15.00;;
18999;SDS011;9633;50.980;13.850;2023-04-10T05:49:39;18.53;;;15.13;;
18999;SDS011;9633;50.980;13.850;2023-04-10T05:51:50;18.73;;;15.40;;
18999;SDS011;9633;50.980;13.850;2023-04-10T05:53:36;18.97;;;15.07;;
18999;SDS011;9633;50.980;13.850;2023-04-10T05:55:21;18.37;;;15.07;;
18999;SDS011;9633;50.980;13.850;2023-04-10T05:57:24;17.53;;;14.20;;
18999;SDS011;9633;50.980;13.850;2023-04-10T05:59:17;17.00;;;13.97;;
18999;SDS011;9633;50.980;13.850;2023-04-10T06:01:07;18.63;;;14.20;;
18999;SDS011;9633;50.980;13.850;2023-04-10T06:02:51;17.40;;;13.80;;
18999;SDS011;9633;50.980;13.850;2023-04-10T06:04:29;17.93;;;13.90;;
18999;SDS011;9633;50.980;13.850;2023-04-10T06:06:05;17.17;;;13.63;;
18999;SDS011;9633;50.980;13.850;2023-04-10T06:07:39;16.47;;;12.97;;
18999;SDS011;9633;50.980;13.850;2023-04-10T06:09:12;15.13;;;13.23;;
18999;SDS011;9633;50.980;13.850;2023-04-10T06:10:45;15.80;;;13.03;;
18999;SDS011;9633;50.980;13.850;2023-04-10T06:12:19;15.87;;;13.50;;
18999;SDS011;9633;50.980;13.850;2023-04-10T06:13:52;16.13;;;13.97;;
18999;SDS011;9633;50.980;13.850;2023-04-10T06:15:32;16.13;;;13.83;;
18999;SDS011;9633;50.980;13.850;2023-04-10T06:17:05;16.17;;;13.53;;
18999;SDS011;9633;50.980;13.850;2023-04-10T06:18:39;16.93;;;13.57;;
18999;SDS011;9633;50.980;13.850;2023-04-10T06:20:15;16.67;;;13.20;;
18999;SDS011;9633;50.980;13.850;2023-04-10T06:21:48;15.47;;;13.47;;
18999;SDS011;9633;50.980;13.850;2023-04-10T06:23:24;16.77;;;13.80;;
18999;SDS011;9633;50.980;13.850;2023-04-10T06:24:58;16.20;;;14.17;;
18999;SDS011;9633;50.980;13.850;2023-04-10T06:26:31;16.60;;;13.57;;
18999;SDS011;9633;50.980;13.850;2023-04-10T06:28:06;16.90;;;13.87;;
18999;SDS011;9633;50.980;13.850;2023-04-10T06:29:40;15.10;;;13.43;;
18999;SDS011;9633;50.980;13.850;2023-04-10T06:31:13;15.77;;;13.43;;
18999;SDS011;9633;50.980;13.850;2023-04-10T06:32:47;16.07;;;13.87;;
18999;SDS011;9633;50.980;13.850;2023-04-10T06:34:20;15.70;;;13.13;;
18999;SDS011;9633;50.980;13.850;2023-04-10T06:36:01;15.87;;;14.13;;
18999;SDS011;9633;50.980;13.850;2023-04-10T06:37:40;15.70;;;13.83;;
18999;SDS011;9633;50.980;13.850;2023-04-10T06:39:14;15.97;;;14.03;;
18999;SDS011;9633;50.980;13.850;2023-04-10T06:40:47;15.70;;;13.97;;
18999;SDS011;9633;50.980;13.850;2023-04-10T06:42:21;16.70;;;14.33;;
18999;SDS011;9633;50.980;13.850;2023-04-10T06:44:04;16.50;;;14.00;;
18999;SDS011;9633;50.980;13.850;2023-04-10T06:45:37;16.33;;;14.50;;
18999;SDS011;9633;50.980;13.850;2023-04-10T06:47:10;15.80;;;14.10;;
18999;SDS011;9633;50.980;13.850;2023-04-10T06:48:44;16.93;;;13.97;;
18999;SDS011;9633;50.980;13.850;2023-04-10T06:50:17;15.37;;;13.77;;
18999;SDS011;9633;50.980;13.850;2023-04-10T06:51:51;17.07;;;14.97;;
18999;SDS011;9633;50.980;13.850;2023-04-10T06:53:25;16.03;;;14.33;;
18999;SDS011;9633;50.980;13.850;2023-04-10T06:54:58;15.57;;;13.97;;
18999;SDS011;9633;50.980;13.850;2023-04-10T06:56:31;16.03;;;14.33;;
18999;SDS011;9633;50.980;13.850;2023-04-10T06:58:04;16.23;;;14.53;;
18999;SDS011;9633;50.980;13.850;2023-04-10T06:59:38;16.20;;;14.50;;
18999;SDS011;9633;50.980;13.850;2023-04-10T07:01:11;16.20;;;14.03;;
18999;SDS011;9633;50.980;13.850;2023-04-10T07:02:44;15.67;;;14.10;;
18999;SDS011;9633;50.980;13.850;2023-04-10T07:04:17;15.43;;;13.83;;
18999;SDS011;9633;50.980;13.850;2023-04-10T07:05:51;15.93;;;14.33;;
18999;SDS011;9633;50.980;13.850;2023-04-10T07:07:25;16.27;;;14.57;;
18999;SDS011;9633;50.980;13.850;2023-04-10T07:08:59;16.57;;;14.03;;
18999;SDS011;9633;50.980;13.850;2023-04-10T07:10:32;15.37;;;13.77;;
18999;SDS011;9633;50.980;13.850;2023-04-10T07:12:06;16.37;;;14.47;;
18999;SDS011;9633;50.980;13.850;2023-04-10T07:13:39;16.83;;;14.77;;
18999;SDS011;9633;50.980;13.850;2023-04-10T07:15:12;16.57;;;14.83;;
18999;SDS011;9633;50.980;13.850;2023-04-10T07:16:46;17.23;;;15.10;;
18999;SDS011;9633;50.980;13.850;2023-04-10T07:18:20;16.77;;;14.93;;
18999;SDS011;9633;50.980;13.850;2023-04-10T07:19:53;16.00;;;14.37;;
18999;SDS011;9633;50.980;13.850;2023-04-10T07:21:26;16.47;;;14.77;;
18999;SDS011;9633;50.980;13.850;2023-04-10T07:23:01;16.00;;;14.20;;
18999;SDS011;9633;50.980;13.850;2023-04-10T07:24:34;16.63;;;14.47;;
18999;SDS011;9633;50.980;13.850;2023-04-10T07:26:07;16.47;;;14.67;;
18999;SDS011;9633;50.980;13.850;2023-04-10T07:27:40;16.60;;;14.83;;
18999;SDS011;9633;50.980;13.850;2023-04-10T07:29:13;17.13;;;15.27;;
18999;SDS011;9633;50.980;13.850;2023-04-10T07:30:47;19.77;;;16.57;;
18999;SDS011;9633;50.980;13.850;2023-04-10T07:32:20;18.17;;;16.20;;
18999;SDS011;9633;50.980;13.850;2023-04-10T07:33:53;18.10;;;16.20;;
18999;SDS011;9633;50.980;13.850;2023-04-10T07:35:26;17.00;;;15.00;;
18999;SDS011;9633;50.980;13.850;2023-04-10T07:36:59;18.83;;;16.47;;
18999;SDS011;9633;50.980;13.850;2023-04-10T07:38:34;18.97;;;16.97;;
18999;SDS011;9633;50.980;13.850;2023-04-10T07:40:08;20.77;;;16.80;;
18999;SDS011;9633;50.980;13.850;2023-04-10T07:41:42;27.53;;;17.03;;
18999;SDS011;9633;50.980;13.850;2023-04-10T07:43:15;21.93;;;17.50;;
18999;SDS011;9633;50.980;13.850;2023-04-10T07:44:48;18.50;;;16.40;;
18999;SDS011;9633;50.980;13.850;2023-04-10T07:46:21;18.37;;;16.37;;
18999;SDS011;9633;50.980;13.850;2023-04-10T07:47:55;21.47;;;17.27;;
18999;SDS011;9633;50.980;13.850;2023-04-10T07:49:29;19.47;;;17.23;;
18999;SDS011;9633;50.980;13.850;2023-04-10T07:51:03;19.43;;;17.27;;
18999;SDS011;9633;50.980;13.850;2023-04-10T07:52:39;20.90;;;17.63;;
18999;SDS011;9633;50.980;13.850;2023-04-10T07:54:14;22.23;;;18.87;;
18999;SDS011;9633;50.980;13.850;2023-04-10T07:55:48;20.33;;;18.10;;
18999;SDS011;9633;50.980;13.850;2023-04-10T07:57:21;21.27;;;18.97;;
18999;SDS011;9633;50.980;13.850;2023-04-10T07:58:54;20.57;;;18.37;;
18999;SDS011;9633;50.980;13.850;2023-04-10T08:00:28;22.10;;;19.27;;
18999;SDS011;9633;50.980;13.850;2023-04-10T08:02:01;20.07;;;17.97;;
18999;SDS011;9633;50.980;13.850;2023-04-10T08:03:36;20.77;;;18.57;;
18999;SDS011;9633;50.980;13.850;2023-04-10T08:05:10;20.67;;;18.43;;
18999;SDS011;9633;50.980;13.850;2023-04-10T08:06:44;20.70;;;17.30;;
18999;SDS011;9633;50.980;13.850;2023-04-10T08:08:17;21.23;;;18.73;;
18999;SDS011;9633;50.980;13.850;2023-04-10T08:09:52;20.80;;;17.90;;
18999;SDS011;9633;50.980;13.850;2023-04-10T08:11:25;21.63;;;18.83;;
18999;SDS011;9633;50.980;13.850;2023-04-10T08:12:59;23.13;;;19.07;;
18999;SDS011;9633;50.980;13.850;2023-04-10T08:14:32;22.03;;;18.13;;
18999;SDS011;9633;50.980;13.850;2023-04-10T08:16:06;21.00;;;17.20;;
18999;SDS011;9633;50.980;13.850;2023-04-10T08:17:39;20.43;;;17.53;;
18999;SDS011;9633;50.980;13.850;2023-04-10T08:19:12;19.70;;;17.60;;
18999;SDS011;9633;50.980;13.850;2023-04-10T08:20:46;20.70;;;17.33;;
18999;SDS011;9633;50.980;13.850;2023-04-10T08:22:19;19.70;;;17.53;;
18999;SDS011;9633;50.980;13.850;2023-04-10T08:23:53;20.23;;;17.50;;
18999;SDS011;9633;50.980;13.850;2023-04-10T08:25:28;19.93;;;17.70;;
18999;SDS011;9633;50.980;13.850;2023-04-10T08:27:03;19.93;;;17.80;;
18999;SDS011;9633;50.980;13.850;2023-04-10T08:28:36;20.40;;;17.13;;
18999;SDS011;9633;50.980;13.850;2023-04-10T08:30:09;18.53;;;16.53;;
18999;SDS011;9633;50.980;13.850;2023-04-10T08:31:43;19.27;;;17.17;;
18999;SDS011;9633;50.980;13.850;2023-04-10T08:33:16;19.70;;;17.60;;
18999;SDS011;9633;50.980;13.850;2023-04-10T08:34:49;21.03;;;18.83;;
18999;SDS011;9633;50.980;13.850;2023-04-10T08:36:22;20.30;;;18.20;;
18999;SDS011;9633;50.980;13.850;2023-04-10T08:37:57;20.13;;;17.93;;
18999;SDS011;9633;50.980;13.850;2023-04-10T08:39:44;19.43;;;17.33;;
18999;SDS011;9633;50.980;13.850;2023-04-10T08:41:18;19.83;;;17.57;;
18999;SDS011;9633;50.980;13.850;2023-04-10T08:42:52;20.87;;;18.63;;
18999;SDS011;9633;50.980;13.850;2023-04-10T08:44:25;20.43;;;18.23;;
18999;SDS011;9633;50.980;13.850;2023-04-10T08:45:58;20.67;;;18.47;;
18999;SDS011;9633;50.980;13.850;2023-04-10T08:47:33;20.23;;;18.03;;
18999;SDS011;9633;50.980;13.850;2023-04-10T08:49:09;20.57;;;17.33;;
18999;SDS011;9633;50.980;13.850;2023-04-10T08:50:46;20.50;;;17.53;;
18999;SDS011;9633;50.980;13.850;2023-04-10T08:52:22;20.93;;;18.10;;
18999;SDS011;9633;50.980;13.850;2023-04-10T08:53:57;19.63;;;17.53;;
18999;SDS011;9633;50.980;13.850;2023-04-10T08:55:37;18.93;;;16.90;;
18999;SDS011;9633;50.980;13.850;2023-04-10T08:57:14;19.93;;;17.27;;
18999;SDS011;9633;50.980;13.850;2023-04-10T08:58:51;19.97;;;17.87;;
18999;SDS011;9633;50.980;13.850;2023-04-10T09:00:24;19.30;;;17.30;;
18999;SDS011;9633;50.980;13.850;2023-04-10T09:01:58;19.87;;;17.70;;
18999;SDS011;9633;50.980;13.850;2023-04-10T09:03:32;18.57;;;16.57;;
18999;SDS011;9633;50.980;13.850;2023-04-10T09:05:06;19.43;;;17.43;;
18999;SDS011;9633;50.980;13.850;2023-04-10T09:06:43;19.30;;;17.30;;
18999;SDS011;9633;50.980;13.850;2023-04-10T09:08:16;20.43;;;16.70;;
18999;SDS011;9633;50.980;13.850;2023-04-10T09:09:49;19.30;;;17.30;;
18999;SDS011;9633;50.980;13.850;2023-04-10T09:11:22;19.33;;;16.90;;
18999;SDS011;9633;50.980;13.850;2023-04-10T09:12:56;19.03;;;17.03;;
18999;SDS011;9633;50.980;13.850;2023-04-10T09:14:30;20.30;;;18.10;;
18999;SDS011;9633;50.980;13.850;2023-04-10T09:16:04;20.33;;;18.13;;
18999;SDS011;9633;50.980;13.850;2023-04-10T09:17:46;20.63;;;18.20;;
18999;SDS011;9633;50.980;13.850;2023-04-10T09:19:30;18.97;;;16.97;;
18999;SDS011;9633;50.980;13.850;2023-04-10T09:21:05;19.27;;;17.27;;
18999;SDS011;9633;50.980;13.850;2023-04-10T09:22:38;19.83;;;17.73;;
18999;SDS011;9633;50.980;13.850;2023-04-10T09:24:11;19.67;;;17.70;;
18999;SDS011;9633;50.980;13.850;2023-04-10T09:25:44;18.77;;;16.80;;
18999;SDS011;9633;50.980;13.850;2023-04-10T09:27:27;19.23;;;17.20;;
18999;SDS011;9633;50.980;13.850;2023-04-10T09:29:04;19.10;;;17.03;;
18999;SDS011;9633;50.980;13.850;2023-04-10T09:30:39;18.00;;;16.10;;
18999;SDS011;9633;50.980;13.850;2023-04-10T09:32:23;18.63;;;16.43;;
18999;SDS011;9633;50.980;13.850;2023-04-10T09:34:09;17.97;;;15.73;;
18999;SDS011;9633;50.980;13.850;2023-04-10T09:35:44;17.53;;;15.70;;